Time;durP1;ratioP1;P1;durP2;ratioP2;P2;SDS_P1;SDS_P2;PMS_P1;PMS_P2;Temp;Humidity;BMP_temperature;BMP_pressure;BME280_temperature;BME280_humidity;BME280_pressure;Samples;Min_cycle;Max_cycle;Signal;HPM_P1;HPM_P2
2022/02/10 00:17:59;;;;;;;;;;;;;;;8.40;57.17;101973.03;4958205;28;19914;-82
2022/02/10 00:20:49;;;;;;;;;;;;;;;8.35;56.84;101971.13;4959854;29;19918;-82
2022/02/10 00:23:51;;;;;;;;;;;;;;;8.54;57.24;101974.13;4959307;28;19914;-82
2022/02/10 00:35:55;;;;;;;;;;;;;;;8.24;55.47;101960.50;4959998;28;19914;-83
2022/02/10 00:38:46;;;;;;;;;;;;;;;7.97;56.14;101958.03;4962510;28;19914;-82
2022/02/10 00:41:30;;;;;;;;;;;;;;;7.91;56.34;101957.22;4959368;28;19915;-83
2022/02/10 00:44:15;;;;;;;;;;;;;;;7.71;55.61;101955.25;4959292;29;20302;-82
2022/02/10 00:46:59;;;;;;;;;;;;;;;7.73;55.72;101963.91;4958778;28;19918;-82
2022/02/10 00:49:46;;;;;;;;;;;;;;;7.87;56.00;101958.00;4959441;28;19915;-82
2022/02/10 00:52:30;;;;;;;;;;;;;;;7.66;55.75;101957.94;4965032;28;19915;-82
2022/02/10 00:55:17;;;;;;;;;;;;;;;7.37;56.32;101956.72;4957894;28;19918;-81
2022/02/10 00:58:05;;;;;;;;;;;;;;;7.19;57.00;101960.69;4958350;28;19914;-83
2022/02/10 01:13:23;;;;;;;;;;;;;;;7.15;57.51;101951.47;4960329;28;19915;-83
2022/02/10 01:31:07;;;;;;;;;;;;;;;7.17;57.77;101951.19;4957732;28;19919;-80
2022/02/10 01:33:51;;;;;;;;;;;;;;;7.11;57.25;101949.56;4957352;29;19918;-79
2022/02/10 01:36:36;;;;;;;;;;;;;;;7.00;57.12;101953.28;4957568;28;20307;-81
2022/02/10 01:39:24;;;;;;;;;;;;;;;7.17;57.35;101952.00;4957916;28;20384;-81
2022/02/10 02:03:25;;;;;;;;;;;;;;;7.15;56.35;101940.66;4958581;28;19914;-81
2022/02/10 02:06:14;;;;;;;;;;;;;;;7.35;57.07;101939.13;4958279;28;19915;-81
2022/02/10 02:09:01;;;;;;;;;;;;;;;7.02;56.97;101922.16;4957988;28;19923;-81
2022/02/10 02:11:47;;;;;;;;;;;;;;;7.33;57.65;101928.56;4959404;28;20295;-81
2022/02/10 02:14:31;;;;;;;;;;;;;;;7.38;56.67;101919.66;4957845;28;19918;-82
2022/02/10 02:17:15;;;;;;;;;;;;;;;7.34;56.60;101916.66;4957763;28;19915;-83
2022/02/10 02:20:00;;;;;;;;;;;;;;;7.52;57.07;101918.88;4957892;28;19914;-83
2022/02/10 02:22:44;;;;;;;;;;;;;;;7.46;56.30;101909.16;4957693;28;19915;-81
2022/02/10 02:25:29;;;;;;;;;;;;;;;7.26;56.24;101904.44;4959829;28;19921;-82
2022/02/10 02:28:14;;;;;;;;;;;;;;;7.15;56.55;101908.19;4957340;28;19919;-82
2022/02/10 02:31:04;;;;;;;;;;;;;;;7.01;57.13;101906.22;4956784;28;19918;-82
2022/02/10 02:37:12;;;;;;;;;;;;;;;6.83;57.29;101904.75;4957519;28;19918;-83
2022/02/10 03:06:52;;;;;;;;;;;;;;;6.26;58.91;101888.38;4957172;28;19914;-82
2022/02/10 03:09:43;;;;;;;;;;;;;;;6.32;57.75;101879.25;4957304;28;19919;-82
2022/02/10 03:12:27;;;;;;;;;;;;;;;6.32;58.88;101895.47;4957373;28;19914;-82
2022/02/10 03:15:22;;;;;;;;;;;;;;;6.28;58.20;101889.78;4957057;28;19914;-82
2022/02/10 03:21:30;;;;;;;;;;;;;;;6.31;57.87;101886.53;4957549;28;19918;-82
2022/02/10 04:01:35;;;;;;;;;;;;;;;6.52;57.67;101871.31;4955607;29;19915;-81
2022/02/10 04:22:14;;;;;;;;;;;;;;;6.67;58.04;101884.91;4960128;28;20291;-81
2022/02/10 04:25:26;;;;;;;;;;;;;;;6.50;57.97;101878.88;4959770;28;19918;-81
2022/02/10 04:41:41;;;;;;;;;;;;;;;6.85;56.84;101872.88;4960092;29;19918;-80
2022/02/10 04:43:49;;;;;;;;;;;;;;;7.03;56.90;101869.72;4946738;29;19922;-81
2022/02/10 05:02:24;;;;;;;;;;;;;;;6.76;58.69;101864.44;4940907;29;19915;-81
2022/02/10 05:20:22;;;;;;;;;;;;;;;6.81;58.63;101863.66;4955450;29;19957;-82
2022/02/10 05:38:14;;;;;;;;;;;;;;;7.21;59.90;101863.06;4951226;29;19914;-82
2022/02/10 05:50:25;;;;;;;;;;;;;;;7.04;59.35;101863.25;4967765;28;19918;-83
2022/02/10 09:07:10;;;;;;;;;;;;;;;8.73;59.45;101893.06;4956314;29;19928;-78
2022/02/10 09:59:01;;;;;;;;;;;;;;;8.82;56.69;101894.13;4962140;29;19914;-79
2022/02/10 10:01:59;;;;;;;;;;;;;;;8.70;56.01;101901.72;4961444;29;19915;-78
2022/02/10 10:04:58;;;;;;;;;;;;;;;8.98;55.80;101898.44;4962797;28;19915;-84
2022/02/10 10:07:58;;;;;;;;;;;;;;;9.01;55.62;101900.59;4957785;29;20291;-81
2022/02/10 10:10:56;;;;;;;;;;;;;;;9.66;54.18;101893.25;4956416;28;20455;-79
2022/02/10 10:14:00;;;;;;;;;;;;;;;9.44;54.49;101886.31;4953688;28;20299;-80
2022/02/10 10:52:25;;;;;;;;;;;;;;;13.33;43.76;101825.16;4956963;29;19914;-80
2022/02/10 10:55:34;;;;;;;;;;;;;;;13.93;42.61;101830.34;4956935;29;19914;-79
2022/02/10 10:58:31;;;;;;;;;;;;;;;13.64;42.85;101817.91;4957378;28;19914;-80
2022/02/10 11:08:06;;;;;;;;;;;;;;;14.26;41.46;101807.09;4957168;28;19914;-80
2022/02/10 11:38:21;;;;;;;;;;;;;;;12.92;44.71;101772.50;4973738;28;19918;-80
2022/02/10 12:37:04;;;;;;;;;;;;;;;14.19;43.22;101694.56;4950412;28;19914;-80
2022/02/10 12:42:03;;;;;;;;;;;;;;;13.95;43.82;101691.41;4955754;29;19918;-81
2022/02/10 13:23:27;;;;;;;;;;;;;;;25.27;24.69;101643.72;4940361;29;20327;-79
2022/02/10 13:33:11;;;;;;;;;;;;;;;22.64;29.25;101622.28;4956501;28;19933;-79
2022/02/10 14:15:12;;;;;;;;;;;;;;;16.87;41.50;101595.09;4959709;28;19914;-78
2022/02/10 14:21:03;;;;;;;;;;;;;;;16.16;43.59;101599.75;4961623;28;19914;-77
2022/02/10 14:26:43;;;;;;;;;;;;;;;16.08;44.62;101598.66;4936225;29;19914;-77
2022/02/10 14:29:28;;;;;;;;;;;;;;;15.74;45.53;101599.63;4935654;29;19918;-77
2022/02/10 14:32:16;;;;;;;;;;;;;;;15.57;46.25;101590.66;4936256;29;20292;-78
2022/02/10 14:35:14;;;;;;;;;;;;;;;15.39;47.42;101598.06;4936105;29;20288;-78
2022/02/10 15:29:59;;;;;;;;;;;;;;;13.95;52.61;101587.47;4935270;29;20291;-77
2022/02/10 15:51:07;;;;;;;;;;;;;;;13.64;53.60;101582.84;4952741;29;19923;-77
2022/02/10 15:56:49;;;;;;;;;;;;;;;13.54;53.83;101574.13;4953910;29;19914;-78
2022/02/10 16:17:45;;;;;;;;;;;;;;;12.85;55.31;101590.81;4954502;29;19915;-78
2022/02/10 16:20:31;;;;;;;;;;;;;;;12.68;55.57;101587.16;4953241;29;19918;-78
2022/02/10 16:23:18;;;;;;;;;;;;;;;12.52;55.44;101588.59;4954718;28;19914;-77
2022/02/10 16:26:11;;;;;;;;;;;;;;;12.66;54.18;101597.53;4957261;28;19914;-78
2022/02/10 16:28:56;;;;;;;;;;;;;;;12.40;54.85;101592.66;4953331;28;19914;-78
2022/02/10 16:31:40;;;;;;;;;;;;;;;12.35;54.99;101587.31;4952416;28;19918;-77
2022/02/10 16:34:24;;;;;;;;;;;;;;;12.35;54.74;101583.78;4957733;28;20292;-77
2022/02/10 16:37:10;;;;;;;;;;;;;;;12.21;54.80;101586.53;4956707;29;19915;-77
2022/02/10 16:39:54;;;;;;;;;;;;;;;12.28;54.37;101583.41;4956294;29;20391;-77
2022/02/10 16:42:39;;;;;;;;;;;;;;;12.04;55.00;101580.88;4955609;28;20327;-77
2022/02/10 16:45:23;;;;;;;;;;;;;;;11.97;54.96;101584.03;4950598;28;19915;-77
2022/02/10 16:48:08;;;;;;;;;;;;;;;12.16;54.23;101583.91;4952270;29;19914;-77
2022/02/10 16:50:52;;;;;;;;;;;;;;;11.89;54.82;101584.72;4948208;28;20307;-77
2022/02/10 16:53:41;;;;;;;;;;;;;;;11.84;55.27;101590.25;4944391;29;19915;-77
2022/02/10 16:56:34;;;;;;;;;;;;;;;11.97;54.85;101594.94;4957453;29;20391;-82
2022/02/10 16:59:38;;;;;;;;;;;;;;;11.81;55.00;101595.50;4958007;29;20263;-77
2022/02/10 17:02:42;;;;;;;;;;;;;;;11.71;55.50;101599.22;4937701;29;19914;-77
2022/02/10 17:28:54;;;;;;;;;;;;;;;11.84;52.38;101617.50;4958549;29;20391;-80
2022/02/10 17:32:06;;;;;;;;;;;;;;;11.96;51.45;101620.56;4964664;28;19918;-80
2022/02/10 17:35:01;;;;;;;;;;;;;;;12.09;50.97;101618.16;4960114;28;19914;-80
2022/02/10 17:52:46;;;;;;;;;;;;;;;11.88;49.80;101629.44;4957187;29;19914;-79
2022/02/10 17:55:31;;;;;;;;;;;;;;;11.98;49.50;101629.25;4950655;29;19926;-79
2022/02/10 17:58:16;;;;;;;;;;;;;;;12.10;49.10;101631.47;4957594;29;20307;-79
2022/02/10 18:01:00;;;;;;;;;;;;;;;12.20;48.94;101635.91;4952990;29;19918;-80
2022/02/10 18:03:47;;;;;;;;;;;;;;;12.17;48.83;101636.53;4951372;28;20303;-79
2022/02/10 18:06:38;;;;;;;;;;;;;;;12.14;48.68;101642.59;4949551;29;20371;-80
2022/02/10 18:15:21;;;;;;;;;;;;;;;12.11;47.89;101643.19;4957426;28;20396;-80
2022/02/10 18:18:17;;;;;;;;;;;;;;;11.91;47.80;101641.66;4945376;29;19914;-79
2022/02/10 18:21:21;;;;;;;;;;;;;;;11.84;48.09;101650.22;4956081;29;19914;-79
2022/02/10 18:24:39;;;;;;;;;;;;;;;11.88;47.78;101647.72;4944596;29;20291;-80
2022/02/10 19:04:31;;;;;;;;;;;;;;;11.74;47.10;101666.75;4941610;29;19915;-80
2022/02/10 19:09:35;;;;;;;;;;;;;;;11.62;47.56;101658.22;4957485;29;20056;-79
2022/02/10 19:12:26;;;;;;;;;;;;;;;11.61;47.48;101656.59;4956118;28;19923;-80
2022/02/10 19:15:23;;;;;;;;;;;;;;;11.58;47.51;101662.63;4956287;29;19915;-80
2022/02/10 19:18:09;;;;;;;;;;;;;;;11.44;47.83;101661.78;4957399;29;19914;-80
2022/02/10 19:20:54;;;;;;;;;;;;;;;11.56;47.60;101662.97;4956686;29;19914;-80
2022/02/10 19:23:38;;;;;;;;;;;;;;;11.55;47.62;101663.25;4958184;29;19916;-80
2022/02/10 19:26:22;;;;;;;;;;;;;;;11.37;47.95;101655.94;4957827;28;19918;-80
2022/02/10 19:29:07;;;;;;;;;;;;;;;11.45;47.77;101668.88;4956683;28;19914;-79
2022/02/10 19:31:53;;;;;;;;;;;;;;;11.42;47.87;101672.19;4955463;29;19918;-80
2022/02/10 19:34:38;;;;;;;;;;;;;;;11.52;47.56;101674.75;4954748;29;20291;-79
2022/02/10 19:37:24;;;;;;;;;;;;;;;11.54;47.50;101670.59;4953817;28;19914;-79
2022/02/10 19:40:10;;;;;;;;;;;;;;;11.57;47.32;101674.66;4954632;28;19914;-79
2022/02/10 19:42:56;;;;;;;;;;;;;;;11.60;47.50;101668.59;4953937;29;19915;-78
2022/02/10 19:45:41;;;;;;;;;;;;;;;11.66;47.00;101670.13;4943476;29;20315;-79
2022/02/10 19:48:26;;;;;;;;;;;;;;;11.52;47.39;101669.31;4948478;29;19919;-80
2022/02/10 19:51:11;;;;;;;;;;;;;;;11.62;47.18;101668.31;4950158;28;19918;-82
2022/02/10 19:53:56;;;;;;;;;;;;;;;11.43;47.68;101668.34;4938948;29;19922;-80
2022/02/10 19:56:41;;;;;;;;;;;;;;;11.40;47.94;101671.66;4950180;28;19922;-80
2022/02/10 19:59:29;;;;;;;;;;;;;;;11.36;48.37;101670.66;4954895;28;20372;-78
2022/02/10 20:02:16;;;;;;;;;;;;;;;11.47;48.22;101666.66;4957208;28;19922;-79
2022/02/10 20:05:01;;;;;;;;;;;;;;;11.47;48.54;101672.09;4957886;29;20310;-79
2022/02/10 20:07:51;;;;;;;;;;;;;;;11.59;48.07;101669.69;4952455;28;19914;-78
2022/02/10 20:10:35;;;;;;;;;;;;;;;11.85;46.64;101670.91;4956894;28;19918;-79
2022/02/10 20:13:21;;;;;;;;;;;;;;;11.74;47.63;101666.75;4957347;28;20355;-79
2022/02/10 20:16:11;;;;;;;;;;;;;;;11.70;48.07;101664.91;4956232;28;19915;-79
2022/02/10 20:18:56;;;;;;;;;;;;;;;11.72;48.43;101665.41;4956380;28;19914;-79
2022/02/10 20:21:40;;;;;;;;;;;;;;;11.73;48.65;101672.53;4960187;28;19918;-80
2022/02/10 20:24:25;;;;;;;;;;;;;;;11.67;48.69;101663.59;4956183;28;19914;-79
2022/02/10 20:27:09;;;;;;;;;;;;;;;11.64;48.52;101666.91;4954614;29;19914;-80
2022/02/10 20:29:54;;;;;;;;;;;;;;;11.55;49.52;101674.13;4954709;29;19914;-80
2022/02/10 20:32:38;;;;;;;;;;;;;;;11.38;49.56;101677.41;4960885;28;19918;-79
2022/02/10 20:35:23;;;;;;;;;;;;;;;11.33;49.32;101665.78;4957682;29;19914;-79
2022/02/10 20:38:09;;;;;;;;;;;;;;;11.41;49.84;101663.22;4951494;28;19914;-79
2022/02/10 20:40:59;;;;;;;;;;;;;;;11.45;49.22;101663.41;4951952;28;19914;-80
2022/02/10 20:43:47;;;;;;;;;;;;;;;11.36;49.03;101670.66;4957861;28;20295;-79
2022/02/10 20:46:38;;;;;;;;;;;;;;;11.43;49.63;101665.63;4959869;28;19915;-78
2022/02/10 20:49:27;;;;;;;;;;;;;;;11.31;49.45;101662.56;4957696;29;19914;-79
2022/02/10 20:52:12;;;;;;;;;;;;;;;11.38;49.91;101662.97;4952620;28;19918;-79
2022/02/10 20:54:58;;;;;;;;;;;;;;;11.49;50.01;101665.25;4955930;28;20371;-79
2022/02/10 20:57:43;;;;;;;;;;;;;;;11.59;49.79;101669.69;4952198;28;19915;-79
2022/02/10 21:00:31;;;;;;;;;;;;;;;11.60;49.44;101671.31;4952343;29;19915;-80
2022/02/10 21:03:16;;;;;;;;;;;;;;;11.63;50.40;101665.28;4957091;29;19914;-80
2022/02/10 21:06:08;;;;;;;;;;;;;;;11.47;50.04;101663.94;4958321;28;19914;-80
2022/02/10 21:11:37;;;;;;;;;;;;;;;11.28;50.61;101663.13;4962206;28;19918;-79
2022/02/10 21:14:25;;;;;;;;;;;;;;;11.35;49.78;101658.13;4881786;28;19919;-79
2022/02/10 21:17:12;;;;;;;;;;;;;;;11.41;49.47;101662.41;4950394;28;19918;-79
2022/02/10 21:20:03;;;;;;;;;;;;;;;11.48;49.47;101658.16;4944681;29;20376;-79
2022/02/10 21:22:57;;;;;;;;;;;;;;;11.61;49.92;101655.78;4942711;28;19930;-79
2022/02/10 21:25:43;;;;;;;;;;;;;;;11.64;49.39;101658.72;4946038;28;19918;-79
2022/02/10 21:28:34;;;;;;;;;;;;;;;11.57;49.62;101658.31;4954146;28;19918;-80
2022/02/10 21:31:20;;;;;;;;;;;;;;;11.50;50.05;101660.59;4953568;28;19922;-79
2022/02/10 21:34:12;;;;;;;;;;;;;;;11.29;49.79;101659.31;4949468;28;19915;-80
2022/02/10 21:37:07;;;;;;;;;;;;;;;11.25;50.48;101653.66;4950109;28;19918;-80
2022/02/10 21:40:10;;;;;;;;;;;;;;;11.41;50.44;101651.50;4951341;28;19919;-79
2022/02/10 22:19:15;;;;;;;;;;;;;;;10.84;51.20;101639.84;4955128;28;19914;-80
2022/02/10 22:22:08;;;;;;;;;;;;;;;10.87;51.68;101636.53;4955098;28;19918;-79
2022/02/10 22:24:52;;;;;;;;;;;;;;;10.88;52.01;101638.16;4943735;29;19918;-79
2022/02/10 22:27:42;;;;;;;;;;;;;;;10.90;51.81;101630.53;4946908;28;20383;-80
2022/02/10 22:30:42;;;;;;;;;;;;;;;10.84;51.71;101634.41;4951355;28;20404;-77
2022/02/10 22:33:44;;;;;;;;;;;;;;;10.79;51.90;101629.03;4957432;28;20398;-78
2022/02/10 22:36:29;;;;;;;;;;;;;;;10.81;52.31;101631.47;4952168;29;19918;-77
2022/02/10 22:39:14;;;;;;;;;;;;;;;10.82;52.18;101628.44;4952939;29;19914;-77
2022/02/10 22:41:59;;;;;;;;;;;;;;;10.95;52.11;101635.88;4954973;28;19918;-77
2022/02/10 22:44:43;;;;;;;;;;;;;;;11.06;51.80;101633.81;4944073;28;19915;-77
2022/02/10 22:47:27;;;;;;;;;;;;;;;10.82;52.01;101633.88;4945117;29;19919;-78
2022/02/10 22:50:12;;;;;;;;;;;;;;;10.82;52.04;101631.16;4944815;29;19915;-78
2022/02/10 22:52:56;;;;;;;;;;;;;;;10.73;52.41;101630.22;4943459;28;19919;-77
2022/02/10 22:55:41;;;;;;;;;;;;;;;10.76;52.52;101629.66;4943640;29;19919;-78
2022/02/10 22:58:25;;;;;;;;;;;;;;;10.80;52.29;101633.41;4944905;28;19914;-78
2022/02/10 23:01:11;;;;;;;;;;;;;;;10.74;52.32;101637.28;4950575;28;19915;-78
2022/02/10 23:03:56;;;;;;;;;;;;;;;10.71;52.57;101635.16;4952770;28;19918;-78
2022/02/10 23:06:41;;;;;;;;;;;;;;;10.63;52.51;101627.63;4948359;29;19919;-78
2022/02/10 23:09:27;;;;;;;;;;;;;;;10.67;52.85;101639.53;4949394;29;19914;-78
2022/02/10 23:12:12;;;;;;;;;;;;;;;10.67;52.72;101636.81;4953992;29;19919;-78
2022/02/10 23:14:57;;;;;;;;;;;;;;;10.86;52.66;101639.56;4951671;28;19914;-78
2022/02/10 23:17:41;;;;;;;;;;;;;;;10.78;52.46;101643.75;4953455;29;19922;-78
2022/02/10 23:20:26;;;;;;;;;;;;;;;10.92;52.70;101644.63;4953219;29;19914;-78
2022/02/10 23:23:11;;;;;;;;;;;;;;;10.82;52.17;101641.28;4961234;28;19914;-78
2022/02/10 23:25:57;;;;;;;;;;;;;;;10.84;52.42;101637.13;4957359;29;19914;-78
2022/02/10 23:28:45;;;;;;;;;;;;;;;10.77;52.16;101625.03;4957632;29;19918;-77
2022/02/10 23:31:29;;;;;;;;;;;;;;;10.72;52.61;101631.31;4957323;28;20379;-78
2022/02/10 23:34:13;;;;;;;;;;;;;;;10.72;52.82;101631.31;4957038;29;19914;-78
2022/02/10 23:36:58;;;;;;;;;;;;;;;10.72;52.76;101623.97;4957233;29;19918;-77
2022/02/10 23:39:45;;;;;;;;;;;;;;;10.61;53.14;101622.50;4957467;29;19914;-78
2022/02/10 23:42:32;;;;;;;;;;;;;;;10.65;53.20;101622.72;4957499;29;19914;-78
2022/02/10 23:45:22;;;;;;;;;;;;;;;10.62;53.32;101629.53;4956553;28;19914;-78
2022/02/10 23:48:07;;;;;;;;;;;;;;;10.61;53.40;101622.50;4957418;29;20283;-78
2022/02/10 23:50:51;;;;;;;;;;;;;;;10.77;53.34;101620.34;4957236;29;19918;-78
2022/02/10 23:53:36;;;;;;;;;;;;;;;10.80;53.41;101622.50;4956598;28;19915;-78
2022/02/10 23:56:26;;;;;;;;;;;;;;;10.78;53.76;101613.81;4957164;29;19915;-78
2022/02/10 23:59:39;;;;;;;;;;;;;;;10.80;52.86;101616.25;4958724;28;19914;-78
